Time;durP1;ratioP1;P1;durP2;ratioP2;P2;SDS_P1;SDS_P2;PMS_P1;PMS_P2;Temp;Humidity;BMP_temperature;BMP_pressure;BME280_temperature;BME280_humidity;BME280_pressure;Samples;Min_cycle;Max_cycle;Signal;HPM_P1;HPM_P2
2022/09/17 00:01:11;;;;;;;24.50;4.55;;;11.70;99.90;;;;;;5026735;28;20140;-78
2022/09/17 00:03:37;;;;;;;26.42;5.15;;;11.70;99.90;;;;;;5042556;28;20045;-78
2022/09/17 00:06:06;;;;;;;19.02;3.92;;;11.70;99.90;;;;;;5021179;28;20052;-78
2022/09/17 00:08:34;;;;;;;20.10;3.97;;;11.60;99.90;;;;;;5045975;28;20068;-78
2022/09/17 00:11:07;;;;;;;15.50;3.75;;;11.50;99.90;;;;;;5044681;28;20623;-77
2022/09/17 00:13:32;;;;;;;19.55;3.97;;;11.60;99.90;;;;;;5027528;28;20403;-78
2022/09/17 00:15:58;;;;;;;20.98;4.13;;;11.50;99.90;;;;;;5024354;28;20035;-78
2022/09/17 00:18:24;;;;;;;22.88;3.72;;;11.60;99.90;;;;;;5042227;28;20132;-78
2022/09/17 00:20:49;;;;;;;18.55;3.78;;;11.50;99.90;;;;;;5036717;28;20369;-77
2022/09/17 00:23:15;;;;;;;18.73;4.45;;;11.50;99.90;;;;;;5043354;28;20048;-78
2022/09/17 00:25:43;;;;;;;19.13;3.65;;;11.50;99.90;;;;;;5023188;28;20063;-78
2022/09/17 00:28:11;;;;;;;18.92;3.33;;;11.40;99.90;;;;;;5027175;28;20130;-78
2022/09/17 00:30:44;;;;;;;;;;;11.40;99.90;;;;;;5025550;28;20041;-77
2022/09/17 00:33:15;;;;;;;17.20;3.53;;;11.30;99.90;;;;;;5020835;28;19927;-78
2022/09/17 00:35:41;;;;;;;18.48;4.32;;;11.30;99.90;;;;;;5042474;28;20037;-77
2022/09/17 00:38:07;;;;;;;20.08;4.00;;;11.20;99.90;;;;;;5025478;28;20430;-78
2022/09/17 00:40:33;;;;;;;21.65;3.65;;;11.20;99.90;;;;;;5042694;28;20536;-78
2022/09/17 00:42:59;;;;;;;19.38;3.55;;;11.30;99.90;;;;;;5024013;28;20691;-78
2022/09/17 00:45:26;;;;;;;20.13;3.88;;;11.20;99.90;;;;;;5044806;28;20053;-78
2022/09/17 00:48:04;;;;;;;19.80;3.92;;;11.10;99.90;;;;;;5024798;28;20610;-78
2022/09/17 00:50:40;;;;;;;17.95;3.97;;;11.10;99.90;;;;;;5022306;28;20120;-78
2022/09/17 00:53:08;;;;;;;17.98;3.55;;;11.10;99.90;;;;;;5040431;28;20060;-80
2022/09/17 00:55:41;;;;;;;20.83;4.35;;;11.00;99.90;;;;;;5045134;28;20492;-78
2022/09/17 00:58:12;;;;;;;17.42;3.83;;;11.00;99.90;;;;;;5043395;28;20041;-78
2022/09/17 01:00:39;;;;;;;20.30;4.38;;;11.00;99.90;;;;;;5022363;28;20879;-77
2022/09/17 01:03:04;;;;;;;20.20;4.25;;;10.90;99.90;;;;;;5038599;28;20042;-78
2022/09/17 01:05:48;;;;;;;16.50;3.55;;;10.90;99.90;;;;;;5024591;28;20103;-78
2022/09/17 01:08:20;;;;;;;21.40;4.00;;;10.90;99.90;;;;;;5043078;28;20049;-77
2022/09/17 01:11:04;;;;;;;15.98;3.42;;;10.90;99.90;;;;;;5042916;28;20124;-78
2022/09/17 01:13:47;;;;;;;19.58;3.50;;;10.90;99.90;;;;;;5032385;28;20229;-78
2022/09/17 01:16:39;;;;;;;16.55;3.78;;;10.80;99.90;;;;;;5042960;28;20053;-78
2022/09/17 01:19:13;;;;;;;18.13;3.20;;;10.80;99.90;;;;;;5041877;28;20041;-78
2022/09/17 01:22:16;;;;;;;15.55;2.80;;;10.80;99.90;;;;;;5024072;28;20483;-77
2022/09/17 01:24:54;;;;;;;18.05;3.65;;;10.80;99.90;;;;;;5025570;28;20667;-77
2022/09/17 01:27:38;;;;;;;19.73;3.25;;;10.80;99.90;;;;;;5023223;28;20052;-80
2022/09/17 01:30:32;;;;;;;16.75;3.40;;;10.70;99.90;;;;;;5016230;28;20041;-80
2022/09/17 01:33:08;;;;;;;15.60;3.67;;;10.70;99.90;;;;;;5017217;28;20060;-77
2022/09/17 01:35:43;;;;;;;20.42;3.75;;;10.70;99.90;;;;;;5020685;28;20045;-77
2022/09/17 01:38:11;;;;;;;12.65;3.15;;;10.80;99.90;;;;;;5018865;28;20049;-78
2022/09/17 01:40:47;;;;;;;17.30;3.17;;;10.70;99.90;;;;;;5044114;28;20111;-80
2022/09/17 01:43:25;;;;;;;17.38;3.60;;;10.70;99.90;;;;;;5020413;28;20080;-78
2022/09/17 01:46:15;;;;;;;13.75;3.05;;;10.70;99.90;;;;;;5025988;28;20467;-80
2022/09/17 01:48:46;;;;;;;16.90;3.40;;;10.60;99.90;;;;;;5015010;28;20536;-78
2022/09/17 01:51:19;;;;;;;16.92;3.50;;;10.60;99.90;;;;;;5036488;28;20041;-78
2022/09/17 01:54:10;;;;;;;17.92;3.58;;;10.60;99.90;;;;;;5039890;28;20080;-77
2022/09/17 01:56:41;;;;;;;20.17;3.67;;;10.60;99.90;;;;;;5039090;28;20083;-80
2022/09/17 01:59:15;;;;;;;17.63;3.22;;;10.60;99.90;;;;;;5026357;28;20036;-80
2022/09/17 02:01:43;;;;;;;16.85;3.25;;;10.60;99.90;;;;;;5020959;28;20084;-77
2022/09/17 02:04:17;;;;;;;20.63;3.38;;;10.60;99.90;;;;;;5040473;28;20056;-80
2022/09/17 02:06:49;;;;;;;11.90;2.92;;;10.60;99.90;;;;;;5042270;28;20049;-78
2022/09/17 02:09:48;;;;;;;16.05;3.58;;;10.60;99.90;;;;;;5019056;28;20067;-78
2022/09/17 02:12:20;;;;;;;18.00;3.40;;;10.60;99.90;;;;;;5033301;28;20135;-78
2022/09/17 02:14:52;;;;;;;16.92;3.08;;;10.60;99.90;;;;;;5024278;28;20045;-78
2022/09/17 02:17:28;;;;;;;18.45;3.30;;;10.60;99.90;;;;;;5041767;28;20057;-78
2022/09/17 02:19:55;;;;;;;15.70;3.40;;;10.60;99.90;;;;;;5015017;28;20511;-78
2022/09/17 02:22:38;;;;;;;16.08;3.10;;;10.60;99.90;;;;;;5038856;28;20130;-77
2022/09/17 02:25:09;;;;;;;16.25;4.05;;;10.60;99.90;;;;;;5042088;28;20041;-78
2022/09/17 02:28:00;;;;;;;13.73;2.90;;;10.60;99.90;;;;;;5021925;28;20049;-78
2022/09/17 02:30:26;;;;;;;15.63;3.83;;;10.60;99.90;;;;;;5026948;28;20679;-78
2022/09/17 02:32:53;;;;;;;16.48;4.10;;;10.60;99.90;;;;;;5019407;28;20119;-78
2022/09/17 02:35:19;;;;;;;15.40;3.70;;;10.60;99.90;;;;;;5041690;28;20045;-75
2022/09/17 02:37:45;;;;;;;19.52;3.75;;;10.60;99.90;;;;;;5037554;28;20037;-78
2022/09/17 02:40:13;;;;;;;23.27;4.80;;;10.60;99.90;;;;;;5042466;28;20039;-78
2022/09/17 02:42:57;;;;;;;18.08;4.22;;;10.50;99.90;;;;;;5024624;28;20037;-78
2022/09/17 02:45:49;;;;;;;19.83;3.90;;;10.50;99.90;;;;;;5025779;28;20124;-77
2022/09/17 02:48:51;;;;;;;19.15;3.90;;;10.50;99.90;;;;;;5028023;28;20056;-78
2022/09/17 02:51:26;;;;;;;17.08;3.22;;;10.50;99.90;;;;;;5043083;28;20444;-78
2022/09/17 02:54:16;;;;;;;20.67;4.10;;;10.50;99.90;;;;;;5022138;28;20045;-78
2022/09/17 02:56:56;;;;;;;15.88;3.72;;;10.50;99.90;;;;;;5020164;28;20061;-77
2022/09/17 02:59:43;;;;;;;18.48;4.13;;;10.50;99.90;;;;;;5020972;28;20111;-78
2022/09/17 03:02:18;;;;;;;;;;;10.40;99.90;;;;;;5037682;28;20042;-78
2022/09/17 03:04:46;;;;;;;14.95;3.38;;;10.40;99.90;;;;;;5028488;28;19927;-78
2022/09/17 03:07:13;;;;;;;13.55;2.95;;;10.40;99.90;;;;;;5023146;28;20049;-78
2022/09/17 03:09:39;;;;;;;16.63;3.20;;;10.40;99.90;;;;;;5029210;28;20653;-78
2022/09/17 03:12:05;;;;;;;15.40;3.80;;;10.40;99.90;;;;;;5028483;28;20053;-78
2022/09/17 03:14:31;;;;;;;15.85;3.10;;;10.40;99.90;;;;;;5028492;28;20087;-78
2022/09/17 03:16:56;;;;;;;15.90;2.97;;;10.40;99.90;;;;;;5039722;28;20064;-78
2022/09/17 03:19:22;;;;;;;17.00;3.15;;;10.40;99.90;;;;;;5024376;28;20036;-78
2022/09/17 03:21:48;;;;;;;17.48;2.80;;;10.40;99.90;;;;;;5023750;28;20040;-78
2022/09/17 03:24:13;;;;;;;14.50;3.03;;;10.40;99.90;;;;;;5021788;28;20111;-78
2022/09/17 03:26:39;;;;;;;18.15;2.90;;;10.30;99.90;;;;;;5046195;28;20124;-80
2022/09/17 03:29:05;;;;;;;18.88;3.35;;;10.40;99.90;;;;;;5042384;28;20052;-78
2022/09/17 03:31:31;;;;;;;17.40;3.25;;;10.40;99.90;;;;;;5022664;28;20041;-79
2022/09/17 03:33:57;;;;;;;17.35;3.42;;;10.40;99.90;;;;;;5043507;28;20037;-78
2022/09/17 03:36:23;;;;;;;19.97;3.60;;;10.40;99.90;;;;;;5025652;28;20061;-80
2022/09/17 03:38:56;;;;;;;17.88;3.42;;;10.40;99.90;;;;;;5044011;28;20029;-79
2022/09/17 03:41:22;;;;;;;17.50;3.05;;;10.50;99.90;;;;;;5042807;28;20041;-80
2022/09/17 03:43:47;;;;;;;14.38;3.55;;;10.50;99.90;;;;;;5040825;28;20056;-80
2022/09/17 03:46:13;;;;;;;23.77;3.35;;;10.50;99.90;;;;;;5028210;28;20052;-80
2022/09/17 03:48:39;;;;;;;14.70;2.90;;;10.50;99.90;;;;;;5041558;28;20060;-80
2022/09/17 03:51:05;;;;;;;16.13;3.10;;;10.50;99.90;;;;;;5024450;28;20136;-78
2022/09/17 03:53:32;;;;;;;16.58;3.00;;;10.50;99.90;;;;;;5027659;28;20044;-81
2022/09/17 03:55:59;;;;;;;13.00;2.80;;;10.40;99.90;;;;;;5043562;28;20048;-80
2022/09/17 03:58:26;;;;;;;14.40;2.75;;;10.50;99.90;;;;;;5041852;28;20080;-80
2022/09/17 04:00:52;;;;;;;19.27;3.20;;;10.50;99.90;;;;;;5019888;28;20041;-77
2022/09/17 04:03:18;;;;;;;18.48;3.58;;;10.40;99.90;;;;;;5041780;28;20532;-77
2022/09/17 04:05:44;;;;;;;12.13;2.60;;;10.40;99.90;;;;;;5026210;28;20045;-80
2022/09/17 04:08:10;;;;;;;15.20;2.70;;;10.40;99.90;;;;;;5042462;28;20056;-79
2022/09/17 04:10:36;;;;;;;13.82;2.65;;;10.40;99.90;;;;;;5026491;28;20590;-80
2022/09/17 04:13:01;;;;;;;12.48;2.63;;;10.40;99.90;;;;;;5024919;28;20045;-80
2022/09/17 04:15:27;;;;;;;14.90;2.60;;;10.40;99.90;;;;;;5025132;28;20086;-80
2022/09/17 04:17:56;;;;;;;14.27;2.92;;;10.40;99.90;;;;;;5042002;28;20045;-79
2022/09/17 04:20:25;;;;;;;12.30;2.65;;;10.40;99.90;;;;;;5024452;28;20041;-80
2022/09/17 04:22:51;;;;;;;12.65;2.40;;;10.40;99.90;;;;;;5043608;28;20099;-80
2022/09/17 04:25:17;;;;;;;11.55;2.25;;;10.40;99.90;;;;;;5041635;28;20044;-76
2022/09/17 04:27:44;;;;;;;9.98;2.35;;;10.40;99.90;;;;;;5027420;28;20599;-79
2022/09/17 04:30:10;;;;;;;12.57;1.90;;;10.40;99.90;;;;;;5040290;28;20081;-79
2022/09/17 04:32:36;;;;;;;15.80;2.55;;;10.40;99.90;;;;;;5042346;28;20123;-79
2022/09/17 04:35:02;;;;;;;11.52;2.20;;;10.40;99.90;;;;;;5043024;28;20594;-77
2022/09/17 04:37:28;;;;;;;13.43;2.45;;;10.40;99.90;;;;;;5043393;28;20051;-77
2022/09/17 04:39:53;;;;;;;11.18;2.42;;;10.40;99.90;;;;;;5042026;28;20123;-77
2022/09/17 04:42:19;;;;;;;12.45;2.17;;;10.40;99.90;;;;;;5043522;28;20931;-77
2022/09/17 04:44:45;;;;;;;13.15;2.60;;;10.40;99.90;;;;;;5026302;28;20110;-76
2022/09/17 04:47:10;;;;;;;14.38;2.42;;;10.40;99.90;;;;;;5024889;28;20075;-77
2022/09/17 04:49:36;;;;;;;16.10;2.83;;;10.40;99.90;;;;;;5024729;28;20090;-76
2022/09/17 04:52:02;;;;;;;13.38;2.40;;;10.40;99.90;;;;;;5043659;28;20033;-78
2022/09/17 04:54:27;;;;;;;16.23;2.35;;;10.30;99.90;;;;;;5041131;28;20466;-77
2022/09/17 04:56:53;;;;;;;16.77;2.78;;;10.30;99.90;;;;;;5025385;28;20569;-80
2022/09/17 04:59:18;;;;;;;14.38;2.20;;;10.30;99.90;;;;;;5021615;28;20041;-78
2022/09/17 05:01:44;;;;;;;14.50;2.67;;;10.30;99.90;;;;;;5021301;28;20088;-77
2022/09/17 05:04:10;;;;;;;9.75;2.45;;;10.30;99.90;;;;;;5039029;28;20055;-78
2022/09/17 05:06:35;;;;;;;13.15;2.30;;;10.30;99.90;;;;;;5040897;28;20095;-77
2022/09/17 05:09:01;;;;;;;9.95;2.30;;;10.20;99.90;;;;;;5016623;28;20053;-78
2022/09/17 05:11:28;;;;;;;15.45;2.83;;;10.20;99.90;;;;;;5038937;28;21023;-78
2022/09/17 05:13:54;;;;;;;14.20;2.45;;;10.20;99.90;;;;;;5036474;28;20076;-77
2022/09/17 05:16:19;;;;;;;9.13;2.40;;;10.20;99.90;;;;;;5019958;28;20124;-78
2022/09/17 05:18:45;;;;;;;12.27;2.50;;;10.20;99.90;;;;;;5040113;28;20182;-78
2022/09/17 05:21:11;;;;;;;11.05;2.30;;;10.20;99.90;;;;;;5038774;28;20677;-78
2022/09/17 05:23:36;;;;;;;11.45;2.22;;;10.20;99.90;;;;;;5023766;28;20041;-77
2022/09/17 05:26:02;;;;;;;13.32;2.55;;;10.20;99.90;;;;;;5037186;28;20037;-79
2022/09/17 05:28:28;;;;;;;12.93;2.85;;;10.20;99.90;;;;;;5033131;28;20776;-79
2022/09/17 05:30:54;;;;;;;8.52;1.85;;;10.20;99.90;;;;;;5020838;28;20044;-79
2022/09/17 05:33:19;;;;;;;17.70;2.70;;;10.20;99.90;;;;;;5023118;28;20132;-79
2022/09/17 05:35:45;;;;;;;11.10;2.55;;;10.30;99.90;;;;;;5026815;28;20063;-78
2022/09/17 05:38:11;;;;;;;12.70;2.60;;;10.30;99.90;;;;;;5023627;28;20835;-79
2022/09/17 05:40:37;;;;;;;11.70;2.42;;;10.30;99.90;;;;;;5024103;28;20057;-80
2022/09/17 05:43:06;;;;;;;12.98;2.53;;;10.30;99.90;;;;;;5039302;28;20142;-79
2022/09/17 05:45:33;;;;;;;12.95;2.50;;;10.30;99.90;;;;;;5017841;28;20056;-79
2022/09/17 05:48:00;;;;;;;14.50;2.90;;;10.30;99.90;;;;;;5019561;28;20049;-79
2022/09/17 05:50:27;;;;;;;13.88;2.33;;;10.30;99.90;;;;;;5019383;28;20527;-79
2022/09/17 05:52:53;;;;;;;16.52;3.20;;;10.40;99.90;;;;;;5023287;28;20055;-77
2022/09/17 05:55:21;;;;;;;13.50;3.00;;;10.40;99.90;;;;;;5024573;28;20553;-82
2022/09/17 05:57:47;;;;;;;13.15;2.60;;;10.40;99.90;;;;;;5023562;28;20088;-75
2022/09/17 06:00:13;;;;;;;14.05;3.33;;;10.40;99.90;;;;;;5019521;28;20041;-75
2022/09/17 06:02:40;;;;;;;11.13;2.70;;;10.50;99.90;;;;;;5016781;28;20542;-73
2022/09/17 06:05:06;;;;;;;9.77;2.28;;;10.50;99.90;;;;;;5020317;28;20111;-75
2022/09/17 06:07:35;;;;;;;13.33;2.97;;;10.50;99.90;;;;;;5016381;28;20175;-75
2022/09/17 06:10:02;;;;;;;13.45;2.58;;;10.60;99.90;;;;;;5021647;28;20353;-78
2022/09/17 06:12:28;;;;;;;9.68;2.38;;;10.60;99.90;;;;;;5017897;28;20500;-77
2022/09/17 06:14:54;;;;;;;12.85;2.90;;;10.60;99.90;;;;;;5017888;28;20044;-76
2022/09/17 06:17:20;;;;;;;9.82;2.25;;;10.70;99.90;;;;;;5019616;28;20067;-77
2022/09/17 06:19:48;;;;;;;10.57;2.53;;;10.70;99.90;;;;;;5016948;28;20050;-77
2022/09/17 06:22:16;;;;;;;12.68;2.90;;;10.80;99.90;;;;;;5012687;28;20045;-77
2022/09/17 06:24:41;;;;;;;14.35;2.60;;;10.80;99.90;;;;;;5020886;28;20413;-78
2022/09/17 06:27:07;;;;;;;12.05;2.28;;;10.90;99.90;;;;;;5015798;28;20477;-77
2022/09/17 06:29:33;;;;;;;11.80;2.60;;;10.90;99.90;;;;;;5022015;28;20041;-77
2022/09/17 06:32:01;;;;;;;9.27;2.10;;;11.10;99.90;;;;;;5015462;28;20082;-76
2022/09/17 06:34:27;;;;;;;9.30;2.17;;;11.20;99.90;;;;;;5021723;28;20049;-77
2022/09/17 06:36:53;;;;;;;9.77;2.13;;;11.10;99.90;;;;;;5017966;28;20049;-76
2022/09/17 06:39:18;;;;;;;13.00;2.72;;;11.10;99.90;;;;;;5018988;28;20048;-82
2022/09/17 06:41:45;;;;;;;11.77;2.03;;;11.20;99.90;;;;;;5022554;28;20128;-85
2022/09/17 06:44:10;;;;;;;11.30;2.35;;;11.20;99.90;;;;;;5020600;28;20045;-79
2022/09/17 06:46:36;;;;;;;10.05;2.20;;;11.10;99.90;;;;;;5016314;28;20049;-82
2022/09/17 06:49:03;;;;;;;12.38;2.30;;;11.10;99.90;;;;;;5023357;28;20052;-81
2022/09/17 06:51:28;;;;;;;11.20;2.38;;;11.00;99.90;;;;;;5028188;28;20430;-80
2022/09/17 06:53:54;;;;;;;13.15;2.55;;;11.00;99.90;;;;;;5029674;28;20080;-82
2022/09/17 06:56:20;;;;;;;12.80;2.53;;;11.00;99.90;;;;;;5027249;28;20056;-80
2022/09/17 06:58:46;;;;;;;13.65;2.47;;;11.10;99.90;;;;;;5028140;28;20041;-81
2022/09/17 07:01:12;;;;;;;11.85;2.20;;;11.10;99.90;;;;;;5028619;28;20054;-83
2022/09/17 07:03:41;;;;;;;10.02;2.55;;;11.10;99.90;;;;;;5033160;28;20085;-84
2022/09/17 07:06:09;;;;;;;11.15;2.20;;;11.10;99.90;;;;;;5030238;28;20348;-83
2022/09/17 07:08:35;;;;;;;13.18;2.53;;;11.10;99.90;;;;;;5027041;28;20033;-81
2022/09/17 07:11:02;;;;;;;10.98;2.40;;;11.10;99.90;;;;;;5025550;28;20137;-82
2022/09/17 07:13:28;;;;;;;12.00;1.92;;;11.10;99.90;;;;;;5027876;28;20056;-83
2022/09/17 07:15:59;;;;;;;14.00;2.47;;;11.10;99.90;;;;;;5025176;28;20064;-84
2022/09/17 07:18:26;;;;;;;12.95;2.40;;;11.20;99.90;;;;;;5029640;28;20140;-83
2022/09/17 07:20:54;;;;;;;7.83;1.67;;;11.20;99.90;;;;;;5026288;28;20045;-84
2022/09/17 07:23:21;;;;;;;8.13;2.00;;;11.20;99.90;;;;;;5012444;28;20312;-79
2022/09/17 07:25:55;;;;;;;12.18;1.80;;;11.20;99.90;;;;;;5015138;28;20038;-84
2022/09/17 07:28:22;;;;;;;12.48;1.98;;;11.30;99.90;;;;;;5025097;28;20076;-85
2022/09/17 07:30:49;;;;;;;7.15;1.90;;;11.40;99.90;;;;;;5027064;28;20072;-84
2022/09/17 07:33:16;;;;;;;8.38;1.75;;;11.40;99.90;;;;;;5030688;28;20439;-80
2022/09/17 07:35:42;;;;;;;9.95;2.05;;;11.50;99.90;;;;;;5023725;28;20030;-83
2022/09/17 07:38:08;;;;;;;9.68;1.70;;;11.60;99.90;;;;;;5024934;28;20061;-84
2022/09/17 07:40:34;;;;;;;10.90;1.70;;;11.70;99.90;;;;;;5023047;28;20106;-87
2022/09/17 07:42:59;;;;;;;8.20;1.90;;;11.70;99.90;;;;;;5024813;28;20061;-85
2022/09/17 07:45:25;;;;;;;8.70;1.60;;;11.80;99.90;;;;;;5027755;28;20060;-84
2022/09/17 07:47:50;;;;;;;9.63;2.00;;;11.80;99.90;;;;;;5049011;28;20068;-87
2022/09/17 07:52:51;;;;;;;9.60;1.55;;;11.70;99.90;;;;;;5077493;23;20565;-84
2022/09/17 07:55:17;;;;;;;10.80;1.95;;;11.70;99.90;;;;;;5028877;28;20056;-84
2022/09/17 07:57:49;;;;;;;10.63;2.03;;;11.70;99.90;;;;;;5042859;28;20087;-80
2022/09/17 08:00:18;;;;;;;12.18;1.80;;;11.80;99.90;;;;;;5049161;28;20076;-84
2022/09/17 08:02:57;;;;;;;10.25;1.90;;;11.80;99.90;;;;;;5029093;28;20049;-82
2022/09/17 08:05:24;;;;;;;10.82;1.98;;;12.00;99.90;;;;;;5030193;28;20128;-82
2022/09/17 08:07:51;;;;;;;9.55;1.92;;;12.00;99.90;;;;;;5045462;28;20029;-78
2022/09/17 08:10:20;;;;;;;10.77;2.15;;;12.10;99.90;;;;;;5039658;28;20052;-81
2022/09/17 08:12:47;;;;;;;10.05;1.98;;;12.00;99.90;;;;;;5048372;28;20068;-81
2022/09/17 08:15:17;;;;;;;11.38;2.30;;;12.00;99.90;;;;;;5042471;28;20037;-80
2022/09/17 08:17:46;;;;;;;11.38;2.20;;;12.00;99.90;;;;;;5042719;28;20045;-81
2022/09/17 08:20:13;;;;;;;9.82;2.08;;;12.10;99.90;;;;;;5047205;28;20045;-82
2022/09/17 08:22:39;;;;;;;8.60;1.95;;;12.20;99.90;;;;;;5025721;28;20052;-77
2022/09/17 08:25:05;;;;;;;9.73;1.85;;;12.30;99.90;;;;;;5040818;28;20551;-81
2022/09/17 08:27:34;;;;;;;10.55;1.70;;;12.30;99.90;;;;;;5024512;28;20072;-81
2022/09/17 08:30:00;;;;;;;9.43;1.70;;;12.50;99.90;;;;;;5041039;28;20087;-81
2022/09/17 08:32:28;;;;;;;8.98;2.42;;;12.60;99.90;;;;;;5045623;28;20446;-81
2022/09/17 08:34:54;;;;;;;10.38;1.83;;;12.70;99.90;;;;;;5047296;28;20056;-80
2022/09/17 08:37:20;;;;;;;15.55;2.10;;;12.80;99.90;;;;;;5044841;28;20052;-81
2022/09/17 08:39:47;;;;;;;6.22;1.48;;;12.90;99.90;;;;;;5025315;28;20041;-81
2022/09/17 08:42:35;;;;;;;6.80;1.30;;;12.90;99.90;;;;;;5039982;28;20516;-84
2022/09/17 08:45:03;;;;;;;7.35;1.73;;;12.90;99.90;;;;;;5042424;28;20079;-82
2022/09/17 08:47:35;;;;;;;6.90;1.30;;;12.90;99.90;;;;;;5041397;28;20431;-85
2022/09/17 08:50:10;;;;;;;7.90;1.35;;;13.00;99.90;;;;;;5006478;28;20052;-78
2022/09/17 08:53:01;;;;;;;6.75;1.50;;;13.10;99.90;;;;;;5013429;28;20049;-80
2022/09/17 08:56:01;;;;;;;7.72;1.55;;;13.20;99.90;;;;;;5043721;28;20474;-84
2022/09/17 08:58:42;;;;;;;6.30;1.30;;;13.20;99.90;;;;;;5021080;28;20218;-81
2022/09/17 09:01:29;;;;;;;11.43;1.50;;;13.30;99.90;;;;;;5031839;28;20045;-77
2022/09/17 09:04:15;;;;;;;;;;;13.30;99.90;;;;;;5021908;28;20073;-88
2022/09/17 09:07:14;;;;;;;8.05;1.67;;;13.10;99.90;;;;;;5022903;28;20889;-78
2022/09/17 09:09:50;;;;;;;8.23;1.55;;;12.90;99.90;;;;;;5042486;28;20041;-80
2022/09/17 09:12:29;;;;;;;5.15;1.10;;;12.70;99.90;;;;;;5037828;28;20045;-80
2022/09/17 09:15:00;;;;;;;6.05;1.60;;;12.60;99.90;;;;;;5026550;28;20076;-82
2022/09/17 09:17:32;;;;;;;8.23;1.40;;;12.60;99.90;;;;;;5041892;28;20060;-76
2022/09/17 09:19:58;;;;;;;4.53;1.10;;;12.50;99.90;;;;;;5028522;28;20453;-80
2022/09/17 09:22:35;;;;;;;8.20;1.35;;;12.50;99.90;;;;;;5042750;28;20043;-79
2022/09/17 09:25:25;;;;;;;9.35;1.60;;;12.60;99.90;;;;;;5044865;28;20095;-85
2022/09/17 09:27:59;;;;;;;7.57;1.33;;;12.70;99.90;;;;;;5043205;28;20040;-85
2022/09/17 09:30:35;;;;;;;6.47;1.48;;;12.80;99.90;;;;;;5023093;28;20132;-82
2022/09/17 09:33:11;;;;;;;7.18;1.60;;;12.90;99.90;;;;;;5036181;28;21473;-85
2022/09/17 09:35:40;;;;;;;6.78;1.55;;;13.00;99.90;;;;;;5016641;28;20047;-84
2022/09/17 09:38:25;;;;;;;7.00;1.50;;;13.00;99.90;;;;;;5026009;28;20072;-85
2022/09/17 09:41:10;;;;;;;8.05;1.27;;;13.10;99.90;;;;;;5044776;28;20539;-81
2022/09/17 09:43:54;;;;;;;7.47;1.75;;;13.20;99.90;;;;;;5033354;28;20040;-80
2022/09/17 09:46:39;;;;;;;8.27;1.60;;;13.40;99.90;;;;;;5024728;28;20070;-82
2022/09/17 09:49:17;;;;;;;6.68;1.27;;;13.50;99.90;;;;;;5034673;28;20052;-79
2022/09/17 09:52:11;;;;;;;7.15;1.83;;;13.60;99.90;;;;;;5043738;28;20053;-82
2022/09/17 09:55:03;;;;;;;7.15;1.60;;;13.50;99.90;;;;;;5039119;28;20045;-79
2022/09/17 09:57:50;;;;;;;9.57;1.60;;;13.50;99.90;;;;;;5042287;28;20102;-80
2022/09/17 10:00:20;;;;;;;;;;;13.50;99.90;;;;;;5041939;28;20033;-83
2022/09/17 10:02:47;;;;;;;6.70;1.20;;;13.50;99.90;;;;;;5042055;28;20902;-82
2022/09/17 10:05:13;;;;;;;6.38;1.27;;;13.60;99.90;;;;;;5035662;28;20033;-82
2022/09/17 10:07:45;;;;;;;4.55;1.30;;;13.60;99.90;;;;;;5026317;28;20052;-84
2022/09/17 10:10:11;;;;;;;5.57;1.10;;;13.60;99.90;;;;;;5044634;28;20443;-82
2022/09/17 10:12:37;;;;;;;6.68;1.55;;;13.60;99.90;;;;;;5025310;28;20041;-82
2022/09/17 10:15:23;;;;;;;6.05;1.10;;;13.50;99.90;;;;;;5033736;28;20052;-81
2022/09/17 10:17:49;;;;;;;9.15;1.60;;;13.50;99.90;;;;;;5042426;28;20049;-85
2022/09/17 10:20:16;;;;;;;7.65;1.58;;;13.40;99.90;;;;;;5036218;28;20578;-83
2022/09/17 10:22:44;;;;;;;5.65;1.23;;;13.40;99.90;;;;;;5026829;28;20080;-83
2022/09/17 10:25:32;;;;;;;8.50;1.75;;;13.30;99.90;;;;;;5039135;28;20076;-85
2022/09/17 10:28:03;;;;;;;8.57;1.38;;;13.30;99.90;;;;;;5038863;28;20066;-84
2022/09/17 10:30:34;;;;;;;7.20;1.52;;;13.30;99.90;;;;;;5039056;28;20041;-84
2022/09/17 10:33:24;;;;;;;10.15;1.67;;;13.20;99.90;;;;;;5037789;28;20075;-82
2022/09/17 10:36:06;;;;;;;7.70;1.58;;;13.20;99.90;;;;;;5034670;28;20048;-80
2022/09/17 10:38:34;;;;;;;6.03;1.20;;;13.00;99.90;;;;;;5032935;28;20496;-84
2022/09/17 10:41:16;;;;;;;8.30;1.33;;;12.80;99.90;;;;;;5017660;28;20408;-83
2022/09/17 10:43:42;;;;;;;8.55;1.70;;;12.80;99.90;;;;;;5023486;28;20395;-84
2022/09/17 10:49:42;;;;;;;5.18;1.15;;;12.60;99.90;;;;;;5032196;28;20041;-85
2022/09/17 10:52:17;;;;;;;5.10;1.05;;;12.60;99.90;;;;;;5024152;28;20057;-86
2022/09/17 10:55:26;;;;;;;6.65;1.55;;;12.70;99.90;;;;;;5037399;28;20068;-82
2022/09/17 10:58:08;;;;;;;9.90;1.88;;;12.90;99.90;;;;;;5037410;28;20072;-81
2022/09/17 11:00:44;;;;;;;5.13;1.20;;;13.10;99.90;;;;;;5043608;28;20387;-84
2022/09/17 11:03:19;;;;;;;6.87;1.30;;;13.30;99.90;;;;;;5017664;28;20424;-80
2022/09/17 11:06:15;;;;;;;6.75;1.25;;;13.50;99.90;;;;;;5040157;28;20045;-86
2022/09/17 11:08:51;;;;;;;8.32;1.20;;;13.60;99.90;;;;;;5039854;28;20142;-85
2022/09/17 11:11:40;;;;;;;6.85;1.40;;;13.80;99.90;;;;;;5043680;28;20044;-85
2022/09/17 11:14:14;;;;;;;8.10;1.30;;;14.00;99.90;;;;;;5026084;28;21622;-79
2022/09/17 11:16:43;;;;;;;7.25;1.20;;;14.10;99.90;;;;;;5034935;28;20068;-79
2022/09/17 11:19:27;;;;;;;7.75;1.45;;;14.30;99.90;;;;;;5039700;28;20037;-78
2022/09/17 11:22:04;;;;;;;11.50;1.60;;;14.50;99.90;;;;;;5044602;28;20076;-83
2022/09/17 11:24:30;;;;;;;;;;;14.60;99.90;;;;;;5044685;28;20500;-80
2022/09/17 11:27:29;;;;;;;7.13;1.33;;;14.60;99.90;;;;;;5024728;28;19947;-75
2022/09/17 11:30:07;;;;;;;5.90;1.35;;;14.40;99.90;;;;;;5037577;28;20038;-82
2022/09/17 11:33:12;;;;;;;9.05;1.50;;;14.10;99.90;;;;;;5044795;28;20787;-79
2022/09/17 11:35:55;;;;;;;9.52;1.80;;;14.00;99.90;;;;;;5020509;28;20045;-79
2022/09/17 11:38:42;;;;;;;7.60;1.80;;;13.60;99.90;;;;;;5023683;28;20041;-80
2022/09/17 11:41:22;;;;;;;7.65;1.52;;;13.50;99.90;;;;;;5043648;28;20037;-81
2022/09/17 11:44:00;;;;;;;5.70;1.38;;;13.30;99.90;;;;;;5047997;28;20106;-81
2022/09/17 11:46:36;;;;;;;8.48;1.73;;;13.10;99.90;;;;;;5048762;28;20080;-81
2022/09/17 11:49:11;;;;;;;7.22;1.55;;;12.90;99.90;;;;;;5029963;28;20052;-81
2022/09/17 11:51:46;;;;;;;6.82;1.42;;;12.60;99.90;;;;;;5046424;28;20049;-81
2022/09/17 11:54:28;;;;;;;7.20;1.40;;;12.50;99.90;;;;;;5047731;28;20095;-81
2022/09/17 11:57:05;;;;;;;8.48;1.67;;;12.30;99.90;;;;;;5047391;28;20077;-81
2022/09/17 11:59:53;;;;;;;6.05;1.30;;;12.30;99.90;;;;;;5048277;28;20484;-81
2022/09/17 12:02:41;;;;;;;5.90;1.65;;;12.30;99.90;;;;;;5040267;28;20122;-81
2022/09/17 12:05:24;;;;;;;5.55;1.30;;;12.40;99.90;;;;;;5027639;28;20540;-81
2022/09/17 12:07:54;;;;;;;6.95;1.50;;;12.50;99.90;;;;;;5047735;28;20071;-81
2022/09/17 12:10:54;;;;;;;6.25;1.85;;;12.70;99.90;;;;;;5047566;28;20083;-81
2022/09/17 12:13:37;;;;;;;6.65;1.42;;;12.80;99.90;;;;;;5030209;28;20064;-81
2022/09/17 12:16:21;;;;;;;7.60;1.27;;;12.80;99.90;;;;;;5047696;28;20443;-81
2022/09/17 12:19:21;;;;;;;7.38;1.80;;;12.90;99.90;;;;;;5044433;28;20091;-81
2022/09/17 12:22:00;;;;;;;8.57;1.80;;;12.90;99.90;;;;;;5047174;28;20049;-82
2022/09/17 12:24:31;;;;;;;5.95;1.27;;;13.00;99.90;;;;;;5046561;28;20550;-83
2022/09/17 12:27:16;;;;;;;8.13;1.55;;;13.10;99.90;;;;;;5048084;28;20041;-83
2022/09/17 12:29:41;;;;;;;6.13;1.50;;;13.10;99.90;;;;;;5047632;28;20037;-83
2022/09/17 12:32:16;;;;;;;8.60;1.98;;;13.20;99.90;;;;;;5043941;28;20055;-82
2022/09/17 12:35:01;;;;;;;8.35;1.77;;;13.40;99.90;;;;;;5028397;28;20041;-83
2022/09/17 12:37:47;;;;;;;11.18;2.15;;;13.50;99.90;;;;;;5025533;28;20579;-81
2022/09/17 12:40:23;;;;;;;8.15;1.63;;;13.70;99.90;;;;;;5045346;28;20399;-81
2022/09/17 12:43:16;;;;;;;7.53;1.70;;;13.80;99.90;;;;;;5029410;28;20083;-81
2022/09/17 12:46:06;;;;;;;6.93;1.55;;;13.90;99.90;;;;;;5046606;28;20045;-81
2022/09/17 12:48:53;;;;;;;5.57;1.52;;;14.00;99.90;;;;;;5046153;28;20049;-81
2022/09/17 12:51:24;;;;;;;5.70;1.13;;;14.10;99.90;;;;;;5044352;28;20496;-81
2022/09/17 12:54:29;;;;;;;6.90;1.42;;;14.20;99.90;;;;;;5044908;28;20052;-81
2022/09/17 12:57:28;;;;;;;9.95;1.88;;;14.10;99.90;;;;;;5028736;28;20079;-80
2022/09/17 13:00:10;;;;;;;7.35;2.03;;;14.10;99.90;;;;;;5036469;28;20103;-75
2022/09/17 13:02:43;;;;;;;10.40;1.98;;;14.10;99.90;;;;;;5040609;28;20068;-77
2022/09/17 13:05:37;;;;;;;7.85;1.60;;;14.20;99.90;;;;;;5030710;28;20063;-82
2022/09/17 13:08:27;;;;;;;7.78;1.73;;;14.30;99.90;;;;;;5044749;28;20039;-80
2022/09/17 13:11:18;;;;;;;9.75;2.42;;;14.40;99.90;;;;;;5040252;28;20052;-78
2022/09/17 13:13:55;;;;;;;9.27;2.00;;;14.50;99.90;;;;;;5039132;28;20052;-81
2022/09/17 13:16:23;;;;;;;;;;;14.60;99.90;;;;;;5027262;28;20389;-78
2022/09/17 13:19:17;;;;;;;11.85;2.20;;;14.60;99.90;;;;;;5027993;28;20019;-75